sensor_id;sensor_type;location;lat;lon;timestamp;temperature;humidity
14893;DHT22;7538;53.626;9.906;2023-01-15T00:00:49;7.10;99.90
14893;DHT22;7538;53.626;9.906;2023-01-15T00:03:16;7.10;99.90
14893;DHT22;7538;53.626;9.906;2023-01-15T00:05:43;7.10;99.90
14893;DHT22;7538;53.626;9.906;2023-01-15T00:08:10;7.10;99.90
14893;DHT22;7538;53.626;9.906;2023-01-15T00:10:36;7.00;99.90
14893;DHT22;7538;53.626;9.906;2023-01-15T00:13:03;7.10;99.90
14893;DHT22;7538;53.626;9.906;2023-01-15T00:15:30;7.00;99.90
14893;DHT22;7538;53.626;9.906;2023-01-15T00:17:58;7.00;99.90
14893;DHT22;7538;53.626;9.906;2023-01-15T00:20:25;7.00;99.90
14893;DHT22;7538;53.626;9.906;2023-01-15T00:22:52;7.00;99.90
14893;DHT22;7538;53.626;9.906;2023-01-15T00:25:19;7.00;99.90
14893;DHT22;7538;53.626;9.906;2023-01-15T00:28:03;5.90;99.90
14893;DHT22;7538;53.626;9.906;2023-01-15T00:30:30;6.90;99.90
14893;DHT22;7538;53.626;9.906;2023-01-15T00:32:58;6.80;99.90
14893;DHT22;7538;53.626;9.906;2023-01-15T00:35:25;6.80;99.90
14893;DHT22;7538;53.626;9.906;2023-01-15T00:37:52;6.70;99.90
14893;DHT22;7538;53.626;9.906;2023-01-15T00:40:19;6.70;99.90
14893;DHT22;7538;53.626;9.906;2023-01-15T00:42:46;6.70;99.90
14893;DHT22;7538;53.626;9.906;2023-01-15T00:45:13;6.50;99.90
14893;DHT22;7538;53.626;9.906;2023-01-15T00:47:41;6.60;99.90
14893;DHT22;7538;53.626;9.906;2023-01-15T00:50:12;6.60;99.90
14893;DHT22;7538;53.626;9.906;2023-01-15T00:52:39;6.60;99.90
14893;DHT22;7538;53.626;9.906;2023-01-15T00:55:07;6.60;99.90
14893;DHT22;7538;53.626;9.906;2023-01-15T00:57:34;6.60;99.90
14893;DHT22;7538;53.626;9.906;2023-01-15T01:00:01;6.50;99.90
14893;DHT22;7538;53.626;9.906;2023-01-15T01:02:28;6.50;99.90
14893;DHT22;7538;53.626;9.906;2023-01-15T01:04:55;6.50;99.90
14893;DHT22;7538;53.626;9.906;2023-01-15T01:07:23;6.60;99.90
14893;DHT22;7538;53.626;9.906;2023-01-15T01:09:50;6.60;99.90
14893;DHT22;7538;53.626;9.906;2023-01-15T01:12:16;6.60;99.90
14893;DHT22;7538;53.626;9.906;2023-01-15T01:14:45;6.60;99.90
14893;DHT22;7538;53.626;9.906;2023-01-15T01:17:12;6.60;99.90
14893;DHT22;7538;53.626;9.906;2023-01-15T01:19:39;6.60;99.90
14893;DHT22;7538;53.626;9.906;2023-01-15T01:22:05;6.60;99.90
14893;DHT22;7538;53.626;9.906;2023-01-15T01:24:34;6.70;99.90
14893;DHT22;7538;53.626;9.906;2023-01-15T01:27:01;6.70;99.90
14893;DHT22;7538;53.626;9.906;2023-01-15T01:29:27;6.60;99.90
14893;DHT22;7538;53.626;9.906;2023-01-15T01:31:54;6.70;99.90
14893;DHT22;7538;53.626;9.906;2023-01-15T01:34:21;6.60;99.90
14893;DHT22;7538;53.626;9.906;2023-01-15T01:36:48;6.60;99.90
14893;DHT22;7538;53.626;9.906;2023-01-15T01:39:16;6.60;99.90
14893;DHT22;7538;53.626;9.906;2023-01-15T01:41:46;6.70;99.90
14893;DHT22;7538;53.626;9.906;2023-01-15T01:47:18;6.80;99.90
14893;DHT22;7538;53.626;9.906;2023-01-15T01:49:48;6.80;99.90
14893;DHT22;7538;53.626;9.906;2023-01-15T01:52:20;6.80;99.90
14893;DHT22;7538;53.626;9.906;2023-01-15T01:54:49;6.90;99.90
14893;DHT22;7538;53.626;9.906;2023-01-15T01:57:19;7.40;99.90
14893;DHT22;7538;53.626;9.906;2023-01-15T01:59:47;6.80;99.90
14893;DHT22;7538;53.626;9.906;2023-01-15T02:02:15;7.80;99.90
14893;DHT22;7538;53.626;9.906;2023-01-15T02:04:43;6.90;99.90
14893;DHT22;7538;53.626;9.906;2023-01-15T02:07:10;6.90;99.90
14893;DHT22;7538;53.626;9.906;2023-01-15T02:09:37;6.90;99.90
14893;DHT22;7538;53.626;9.906;2023-01-15T02:12:09;6.90;99.90
14893;DHT22;7538;53.626;9.906;2023-01-15T02:14:42;6.90;99.90
14893;DHT22;7538;53.626;9.906;2023-01-15T02:17:17;6.90;99.90
14893;DHT22;7538;53.626;9.906;2023-01-15T02:19:50;6.90;99.90
14893;DHT22;7538;53.626;9.906;2023-01-15T02:22:30;6.90;99.90
14893;DHT22;7538;53.626;9.906;2023-01-15T02:25:05;7.00;99.90
14893;DHT22;7538;53.626;9.906;2023-01-15T02:27:36;6.90;99.90
14893;DHT22;7538;53.626;9.906;2023-01-15T02:30:07;6.90;99.90
14893;DHT22;7538;53.626;9.906;2023-01-15T02:32:39;6.90;99.90
14893;DHT22;7538;53.626;9.906;2023-01-15T02:35:10;6.90;99.90
14893;DHT22;7538;53.626;9.906;2023-01-15T02:37:41;6.90;99.90
14893;DHT22;7538;53.626;9.906;2023-01-15T02:40:11;6.90;99.90
14893;DHT22;7538;53.626;9.906;2023-01-15T02:42:40;6.90;99.90
14893;DHT22;7538;53.626;9.906;2023-01-15T02:45:08;6.90;99.90
14893;DHT22;7538;53.626;9.906;2023-01-15T02:47:39;6.80;99.90
14893;DHT22;7538;53.626;9.906;2023-01-15T02:52:44;6.80;99.90
14893;DHT22;7538;53.626;9.906;2023-01-15T02:55:16;6.90;99.90
14893;DHT22;7538;53.626;9.906;2023-01-15T02:57:46;6.90;99.90
14893;DHT22;7538;53.626;9.906;2023-01-15T03:00:16;7.00;99.90
14893;DHT22;7538;53.626;9.906;2023-01-15T03:02:46;6.90;99.90
14893;DHT22;7538;53.626;9.906;2023-01-15T03:05:19;6.90;99.90
14893;DHT22;7538;53.626;9.906;2023-01-15T03:07:49;6.90;99.90
14893;DHT22;7538;53.626;9.906;2023-01-15T03:10:17;6.90;99.90
14893;DHT22;7538;53.626;9.906;2023-01-15T03:12:49;6.90;99.90
14893;DHT22;7538;53.626;9.906;2023-01-15T03:15:37;7.00;99.90
14893;DHT22;7538;53.626;9.906;2023-01-15T03:18:23;6.80;99.90
14893;DHT22;7538;53.626;9.906;2023-01-15T03:20:56;6.80;99.90
14893;DHT22;7538;53.626;9.906;2023-01-15T03:23:25;6.90;99.90
14893;DHT22;7538;53.626;9.906;2023-01-15T03:25:54;6.90;99.90
14893;DHT22;7538;53.626;9.906;2023-01-15T03:28:25;6.90;99.90
14893;DHT22;7538;53.626;9.906;2023-01-15T03:30:52;6.90;99.90
14893;DHT22;7538;53.626;9.906;2023-01-15T03:33:19;6.90;99.90
14893;DHT22;7538;53.626;9.906;2023-01-15T03:35:48;6.90;99.90
14893;DHT22;7538;53.626;9.906;2023-01-15T03:38:19;6.90;99.90
14893;DHT22;7538;53.626;9.906;2023-01-15T03:40:52;5.20;99.90
14893;DHT22;7538;53.626;9.906;2023-01-15T03:43:30;6.90;99.90
14893;DHT22;7538;53.626;9.906;2023-01-15T03:46:15;6.90;99.90
14893;DHT22;7538;53.626;9.906;2023-01-15T03:48:50;6.80;99.90
14893;DHT22;7538;53.626;9.906;2023-01-15T03:51:23;6.80;99.90
14893;DHT22;7538;53.626;9.906;2023-01-15T03:53:53;6.90;99.90
14893;DHT22;7538;53.626;9.906;2023-01-15T03:56:27;7.00;99.90
14893;DHT22;7538;53.626;9.906;2023-01-15T03:58:59;6.90;99.90
14893;DHT22;7538;53.626;9.906;2023-01-15T04:01:31;6.90;99.90
14893;DHT22;7538;53.626;9.906;2023-01-15T04:04:00;6.90;99.90
14893;DHT22;7538;53.626;9.906;2023-01-15T04:06:31;6.90;99.90
14893;DHT22;7538;53.626;9.906;2023-01-15T04:08:58;6.90;99.90
14893;DHT22;7538;53.626;9.906;2023-01-15T04:11:26;6.90;99.90
14893;DHT22;7538;53.626;9.906;2023-01-15T04:13:53;6.90;99.90
14893;DHT22;7538;53.626;9.906;2023-01-15T04:16:24;6.90;99.90
14893;DHT22;7538;53.626;9.906;2023-01-15T04:18:52;6.90;99.90
14893;DHT22;7538;53.626;9.906;2023-01-15T04:21:19;7.00;99.90
14893;DHT22;7538;53.626;9.906;2023-01-15T04:23:46;6.90;99.90
14893;DHT22;7538;53.626;9.906;2023-01-15T04:26:13;7.00;99.90
14893;DHT22;7538;53.626;9.906;2023-01-15T04:28:40;7.00;99.90
14893;DHT22;7538;53.626;9.906;2023-01-15T04:31:07;7.00;99.90
14893;DHT22;7538;53.626;9.906;2023-01-15T04:33:35;7.00;99.90
14893;DHT22;7538;53.626;9.906;2023-01-15T04:36:04;7.00;99.90
14893;DHT22;7538;53.626;9.906;2023-01-15T04:38:31;7.00;99.90
14893;DHT22;7538;53.626;9.906;2023-01-15T04:41:00;7.00;99.90
14893;DHT22;7538;53.626;9.906;2023-01-15T04:43:44;7.00;99.90
14893;DHT22;7538;53.626;9.906;2023-01-15T04:46:28;7.00;99.90
14893;DHT22;7538;53.626;9.906;2023-01-15T04:48:56;7.00;99.90
14893;DHT22;7538;53.626;9.906;2023-01-15T04:51:23;6.90;99.90
14893;DHT22;7538;53.626;9.906;2023-01-15T04:53:50;6.90;99.90
14893;DHT22;7538;53.626;9.906;2023-01-15T04:56:17;6.90;99.90
14893;DHT22;7538;53.626;9.906;2023-01-15T04:58:43;6.80;99.90
14893;DHT22;7538;53.626;9.906;2023-01-15T05:01:11;4.30;99.90
14893;DHT22;7538;53.626;9.906;2023-01-15T05:03:38;7.00;99.90
14893;DHT22;7538;53.626;9.906;2023-01-15T05:06:06;6.90;99.90
14893;DHT22;7538;53.626;9.906;2023-01-15T05:08:33;7.00;99.90
14893;DHT22;7538;53.626;9.906;2023-01-15T05:11:01;7.00;99.90
14893;DHT22;7538;53.626;9.906;2023-01-15T05:13:29;7.10;99.90
14893;DHT22;7538;53.626;9.906;2023-01-15T05:16:06;7.20;99.90
14893;DHT22;7538;53.626;9.906;2023-01-15T05:18:33;7.20;99.90
14893;DHT22;7538;53.626;9.906;2023-01-15T05:21:00;7.20;99.90
14893;DHT22;7538;53.626;9.906;2023-01-15T05:23:28;7.30;99.90
14893;DHT22;7538;53.626;9.906;2023-01-15T05:25:55;7.30;99.90
14893;DHT22;7538;53.626;9.906;2023-01-15T05:28:21;7.40;99.90
14893;DHT22;7538;53.626;9.906;2023-01-15T05:30:48;7.30;99.90
14893;DHT22;7538;53.626;9.906;2023-01-15T05:33:15;7.30;99.90
14893;DHT22;7538;53.626;9.906;2023-01-15T05:35:42;7.30;99.90
14893;DHT22;7538;53.626;9.906;2023-01-15T05:38:08;9.80;99.90
14893;DHT22;7538;53.626;9.906;2023-01-15T05:40:37;7.20;99.90
14893;DHT22;7538;53.626;9.906;2023-01-15T05:43:03;7.10;99.90
14893;DHT22;7538;53.626;9.906;2023-01-15T05:45:33;9.50;99.90
14893;DHT22;7538;53.626;9.906;2023-01-15T05:48:00;7.10;99.90
14893;DHT22;7538;53.626;9.906;2023-01-15T05:50:26;7.20;99.90
14893;DHT22;7538;53.626;9.906;2023-01-15T05:52:53;7.00;99.90
14893;DHT22;7538;53.626;9.906;2023-01-15T05:55:20;7.00;99.90
14893;DHT22;7538;53.626;9.906;2023-01-15T05:57:48;6.90;99.90
14893;DHT22;7538;53.626;9.906;2023-01-15T06:00:16;6.90;99.90
14893;DHT22;7538;53.626;9.906;2023-01-15T06:02:42;6.90;99.90
14893;DHT22;7538;53.626;9.906;2023-01-15T06:05:09;6.90;99.90
14893;DHT22;7538;53.626;9.906;2023-01-15T06:07:36;6.80;99.90
14893;DHT22;7538;53.626;9.906;2023-01-15T06:10:03;6.70;99.90
14893;DHT22;7538;53.626;9.906;2023-01-15T06:12:31;6.90;99.90
14893;DHT22;7538;53.626;9.906;2023-01-15T06:14:59;6.90;99.90
14893;DHT22;7538;53.626;9.906;2023-01-15T06:17:26;6.90;99.90
14893;DHT22;7538;53.626;9.906;2023-01-15T06:19:53;6.90;99.90
14893;DHT22;7538;53.626;9.906;2023-01-15T06:22:20;7.00;99.90
14893;DHT22;7538;53.626;9.906;2023-01-15T06:24:46;7.00;99.90
14893;DHT22;7538;53.626;9.906;2023-01-15T06:27:13;7.00;99.90
14893;DHT22;7538;53.626;9.906;2023-01-15T06:29:40;7.10;99.90
14893;DHT22;7538;53.626;9.906;2023-01-15T06:32:08;7.10;99.90
14893;DHT22;7538;53.626;9.906;2023-01-15T06:34:35;7.10;99.90
14893;DHT22;7538;53.626;9.906;2023-01-15T06:37:02;7.20;99.90
14893;DHT22;7538;53.626;9.906;2023-01-15T06:39:28;7.20;99.90
14893;DHT22;7538;53.626;9.906;2023-01-15T06:41:55;7.20;99.90
14893;DHT22;7538;53.626;9.906;2023-01-15T06:44:39;7.20;99.90
14893;DHT22;7538;53.626;9.906;2023-01-15T06:47:25;7.30;99.90
14893;DHT22;7538;53.626;9.906;2023-01-15T06:49:53;7.30;99.90
14893;DHT22;7538;53.626;9.906;2023-01-15T06:52:21;7.30;99.90
14893;DHT22;7538;53.626;9.906;2023-01-15T06:54:47;7.40;99.90
14893;DHT22;7538;53.626;9.906;2023-01-15T06:57:14;7.40;99.90
14893;DHT22;7538;53.626;9.906;2023-01-15T06:59:43;7.40;99.90
14893;DHT22;7538;53.626;9.906;2023-01-15T07:02:10;7.40;99.90
14893;DHT22;7538;53.626;9.906;2023-01-15T07:04:38;7.40;99.90
14893;DHT22;7538;53.626;9.906;2023-01-15T07:07:05;7.40;99.90
14893;DHT22;7538;53.626;9.906;2023-01-15T07:09:32;7.30;99.90
14893;DHT22;7538;53.626;9.906;2023-01-15T07:11:58;7.30;99.90
14893;DHT22;7538;53.626;9.906;2023-01-15T07:14:26;7.30;99.90
14893;DHT22;7538;53.626;9.906;2023-01-15T07:16:53;7.30;99.90
14893;DHT22;7538;53.626;9.906;2023-01-15T07:19:21;7.40;99.90
14893;DHT22;7538;53.626;9.906;2023-01-15T07:21:49;7.40;99.90
14893;DHT22;7538;53.626;9.906;2023-01-15T07:24:16;7.30;99.90
14893;DHT22;7538;53.626;9.906;2023-01-15T07:26:43;7.30;99.90
14893;DHT22;7538;53.626;9.906;2023-01-15T07:29:10;7.30;99.90
14893;DHT22;7538;53.626;9.906;2023-01-15T07:31:37;7.30;99.90
14893;DHT22;7538;53.626;9.906;2023-01-15T07:34:05;7.30;99.90
14893;DHT22;7538;53.626;9.906;2023-01-15T07:36:32;7.20;99.90
14893;DHT22;7538;53.626;9.906;2023-01-15T07:39:02;7.20;99.90
14893;DHT22;7538;53.626;9.906;2023-01-15T07:41:29;7.20;99.90
14893;DHT22;7538;53.626;9.906;2023-01-15T07:44:14;7.20;99.90
14893;DHT22;7538;53.626;9.906;2023-01-15T07:46:58;7.30;99.90
14893;DHT22;7538;53.626;9.906;2023-01-15T07:49:43;7.30;99.90
14893;DHT22;7538;53.626;9.906;2023-01-15T07:52:14;7.30;99.90
14893;DHT22;7538;53.626;9.906;2023-01-15T07:54:43;8.20;99.90
14893;DHT22;7538;53.626;9.906;2023-01-15T07:57:11;7.20;99.90
14893;DHT22;7538;53.626;9.906;2023-01-15T07:59:39;7.10;99.90
14893;DHT22;7538;53.626;9.906;2023-01-15T08:02:06;7.10;99.90
14893;DHT22;7538;53.626;9.906;2023-01-15T08:04:33;7.10;99.90
14893;DHT22;7538;53.626;9.906;2023-01-15T08:07:00;7.20;99.90
14893;DHT22;7538;53.626;9.906;2023-01-15T08:09:27;7.20;99.90
14893;DHT22;7538;53.626;9.906;2023-01-15T08:11:57;7.20;99.90
14893;DHT22;7538;53.626;9.906;2023-01-15T08:14:41;7.20;99.90
14893;DHT22;7538;53.626;9.906;2023-01-15T08:17:26;7.30;99.90
14893;DHT22;7538;53.626;9.906;2023-01-15T08:19:52;7.40;99.90
14893;DHT22;7538;53.626;9.906;2023-01-15T08:22:20;7.40;99.90
14893;DHT22;7538;53.626;9.906;2023-01-15T08:24:46;7.40;99.90
14893;DHT22;7538;53.626;9.906;2023-01-15T08:27:14;7.40;99.90
14893;DHT22;7538;53.626;9.906;2023-01-15T08:29:41;9.90;99.90
14893;DHT22;7538;53.626;9.906;2023-01-15T08:32:08;7.50;99.90
14893;DHT22;7538;53.626;9.906;2023-01-15T08:34:35;7.50;99.90
14893;DHT22;7538;53.626;9.906;2023-01-15T08:37:02;7.40;99.90
14893;DHT22;7538;53.626;9.906;2023-01-15T08:39:29;7.50;99.90
14893;DHT22;7538;53.626;9.906;2023-01-15T08:41:55;7.50;99.90
14893;DHT22;7538;53.626;9.906;2023-01-15T08:44:24;4.60;99.90
14893;DHT22;7538;53.626;9.906;2023-01-15T08:46:52;7.50;99.90
14893;DHT22;7538;53.626;9.906;2023-01-15T08:49:19;7.50;99.90
14893;DHT22;7538;53.626;9.906;2023-01-15T08:51:47;7.50;99.90
14893;DHT22;7538;53.626;9.906;2023-01-15T08:54:17;7.50;99.90
14893;DHT22;7538;53.626;9.906;2023-01-15T08:56:43;7.50;99.90
14893;DHT22;7538;53.626;9.906;2023-01-15T08:59:10;7.50;99.90
14893;DHT22;7538;53.626;9.906;2023-01-15T09:01:39;7.60;99.90
14893;DHT22;7538;53.626;9.906;2023-01-15T09:04:06;7.50;99.90
14893;DHT22;7538;53.626;9.906;2023-01-15T09:06:33;7.50;99.90
14893;DHT22;7538;53.626;9.906;2023-01-15T09:09:00;7.60;99.90
14893;DHT22;7538;53.626;9.906;2023-01-15T09:11:27;7.50;99.90
14893;DHT22;7538;53.626;9.906;2023-01-15T09:13:54;7.50;99.90
14893;DHT22;7538;53.626;9.906;2023-01-15T09:16:21;7.50;99.90
14893;DHT22;7538;53.626;9.906;2023-01-15T09:18:49;7.60;99.90
14893;DHT22;7538;53.626;9.906;2023-01-15T09:21:16;7.60;99.90
14893;DHT22;7538;53.626;9.906;2023-01-15T09:23:42;7.40;99.90
14893;DHT22;7538;53.626;9.906;2023-01-15T09:26:25;7.40;99.90
14893;DHT22;7538;53.626;9.906;2023-01-15T09:28:52;7.70;99.90
14893;DHT22;7538;53.626;9.906;2023-01-15T09:31:19;8.20;99.90
14893;DHT22;7538;53.626;9.906;2023-01-15T09:33:45;8.70;99.90
14893;DHT22;7538;53.626;9.906;2023-01-15T09:36:16;9.30;99.90
14893;DHT22;7538;53.626;9.906;2023-01-15T09:38:44;9.80;99.90
14893;DHT22;7538;53.626;9.906;2023-01-15T09:41:12;10.10;99.90
14893;DHT22;7538;53.626;9.906;2023-01-15T09:44:17;10.40;99.90
14893;DHT22;7538;53.626;9.906;2023-01-15T09:46:56;10.50;99.90
14893;DHT22;7538;53.626;9.906;2023-01-15T09:49:36;10.80;99.90
14893;DHT22;7538;53.626;9.906;2023-01-15T09:52:11;11.40;99.90
14893;DHT22;7538;53.626;9.906;2023-01-15T09:54:45;11.60;99.90
14893;DHT22;7538;53.626;9.906;2023-01-15T09:57:16;11.40;99.70
14893;DHT22;7538;53.626;9.906;2023-01-15T09:59:46;11.20;99.50
14893;DHT22;7538;53.626;9.906;2023-01-15T10:02:21;11.10;99.90
14893;DHT22;7538;53.626;9.906;2023-01-15T10:04:51;11.20;99.90
14893;DHT22;7538;53.626;9.906;2023-01-15T10:07:26;11.40;99.90
14893;DHT22;7538;53.626;9.906;2023-01-15T10:10:00;11.20;99.90
14893;DHT22;7538;53.626;9.906;2023-01-15T10:12:29;10.90;99.60
14893;DHT22;7538;53.626;9.906;2023-01-15T10:15:21;10.70;99.90
14893;DHT22;7538;53.626;9.906;2023-01-15T10:17:51;10.50;99.90
14893;DHT22;7538;53.626;9.906;2023-01-15T10:20:33;10.20;99.90
14893;DHT22;7538;53.626;9.906;2023-01-15T10:23:15;10.10;99.90
14893;DHT22;7538;53.626;9.906;2023-01-15T10:25:49;9.90;99.90
14893;DHT22;7538;53.626;9.906;2023-01-15T10:28:19;9.90;99.90
14893;DHT22;7538;53.626;9.906;2023-01-15T10:30:52;9.70;99.90
14893;DHT22;7538;53.626;9.906;2023-01-15T10:33:38;9.50;99.90
14893;DHT22;7538;53.626;9.906;2023-01-15T10:36:09;9.30;99.90
14893;DHT22;7538;53.626;9.906;2023-01-15T10:38:45;9.20;99.90
14893;DHT22;7538;53.626;9.906;2023-01-15T10:41:36;9.00;99.90
14893;DHT22;7538;53.626;9.906;2023-01-15T10:44:11;8.90;99.90
14893;DHT22;7538;53.626;9.906;2023-01-15T10:46:40;8.70;99.90
14893;DHT22;7538;53.626;9.906;2023-01-15T10:49:12;8.60;99.90
14893;DHT22;7538;53.626;9.906;2023-01-15T10:51:43;8.60;99.90
14893;DHT22;7538;53.626;9.906;2023-01-15T10:54:21;8.60;99.90
14893;DHT22;7538;53.626;9.906;2023-01-15T10:56:54;8.60;99.90
14893;DHT22;7538;53.626;9.906;2023-01-15T10:59:34;8.60;99.90
14893;DHT22;7538;53.626;9.906;2023-01-15T11:02:03;8.70;99.90
14893;DHT22;7538;53.626;9.906;2023-01-15T11:04:39;8.70;99.90
14893;DHT22;7538;53.626;9.906;2023-01-15T11:07:09;8.70;99.90
14893;DHT22;7538;53.626;9.906;2023-01-15T11:09:40;8.60;99.90
14893;DHT22;7538;53.626;9.906;2023-01-15T11:12:18;8.60;99.90
14893;DHT22;7538;53.626;9.906;2023-01-15T11:15:13;8.50;99.90
14893;DHT22;7538;53.626;9.906;2023-01-15T11:17:57;8.50;99.90
14893;DHT22;7538;53.626;9.906;2023-01-15T11:20:45;8.50;99.90
14893;DHT22;7538;53.626;9.906;2023-01-15T11:23:13;8.40;99.90
14893;DHT22;7538;53.626;9.906;2023-01-15T11:25:49;8.40;99.90
14893;DHT22;7538;53.626;9.906;2023-01-15T11:28:17;8.40;99.90
14893;DHT22;7538;53.626;9.906;2023-01-15T11:30:52;8.50;99.90
14893;DHT22;7538;53.626;9.906;2023-01-15T11:33:22;8.60;99.90
14893;DHT22;7538;53.626;9.906;2023-01-15T11:35:50;8.50;99.90
14893;DHT22;7538;53.626;9.906;2023-01-15T11:38:23;8.40;99.90
14893;DHT22;7538;53.626;9.906;2023-01-15T11:40:53;8.30;99.90
14893;DHT22;7538;53.626;9.906;2023-01-15T11:43:23;8.30;99.90
14893;DHT22;7538;53.626;9.906;2023-01-15T11:46:23;8.20;99.90
14893;DHT22;7538;53.626;9.906;2023-01-15T11:49:09;8.10;99.90
14893;DHT22;7538;53.626;9.906;2023-01-15T11:51:56;8.00;99.90
14893;DHT22;7538;53.626;9.906;2023-01-15T11:54:25;7.90;99.90
14893;DHT22;7538;53.626;9.906;2023-01-15T11:56:53;7.80;99.90
14893;DHT22;7538;53.626;9.906;2023-01-15T11:59:21;7.80;99.90
14893;DHT22;7538;53.626;9.906;2023-01-15T12:01:51;7.60;99.90
14893;DHT22;7538;53.626;9.906;2023-01-15T12:04:32;7.60;99.90
14893;DHT22;7538;53.626;9.906;2023-01-15T12:07:01;7.50;99.90
14893;DHT22;7538;53.626;9.906;2023-01-15T12:09:39;7.50;99.90
14893;DHT22;7538;53.626;9.906;2023-01-15T12:12:21;7.40;99.90
14893;DHT22;7538;53.626;9.906;2023-01-15T12:15:11;7.40;99.90
14893;DHT22;7538;53.626;9.906;2023-01-15T12:18:05;7.40;99.90
14893;DHT22;7538;53.626;9.906;2023-01-15T12:20:47;7.30;99.90
14893;DHT22;7538;53.626;9.906;2023-01-15T12:26:36;7.20;99.90
14893;DHT22;7538;53.626;9.906;2023-01-15T12:29:20;7.10;99.90
14893;DHT22;7538;53.626;9.906;2023-01-15T12:31:51;7.10;99.90
14893;DHT22;7538;53.626;9.906;2023-01-15T12:34:22;7.10;99.90
14893;DHT22;7538;53.626;9.906;2023-01-15T12:36:53;7.10;99.90
14893;DHT22;7538;53.626;9.906;2023-01-15T12:39:25;7.10;99.90
14893;DHT22;7538;53.626;9.906;2023-01-15T12:41:57;7.10;99.90
14893;DHT22;7538;53.626;9.906;2023-01-15T12:44:47;7.10;99.90
14893;DHT22;7538;53.626;9.906;2023-01-15T12:47:32;4.10;99.90
14893;DHT22;7538;53.626;9.906;2023-01-15T12:50:06;7.40;99.90
14893;DHT22;7538;53.626;9.906;2023-01-15T12:52:39;7.00;99.90
14893;DHT22;7538;53.626;9.906;2023-01-15T12:55:13;7.10;99.90
14893;DHT22;7538;53.626;9.906;2023-01-15T12:57:43;7.20;99.90
14893;DHT22;7538;53.626;9.906;2023-01-15T13:00:22;7.20;99.90
14893;DHT22;7538;53.626;9.906;2023-01-15T13:03:09;7.20;99.90
14893;DHT22;7538;53.626;9.906;2023-01-15T13:05:44;7.30;99.90
14893;DHT22;7538;53.626;9.906;2023-01-15T13:08:18;7.40;99.90
14893;DHT22;7538;53.626;9.906;2023-01-15T13:10:48;7.40;99.90
14893;DHT22;7538;53.626;9.906;2023-01-15T13:13:17;7.40;99.90
14893;DHT22;7538;53.626;9.906;2023-01-15T13:16:12;7.40;99.90
14893;DHT22;7538;53.626;9.906;2023-01-15T13:18:49;7.50;99.90
14893;DHT22;7538;53.626;9.906;2023-01-15T13:21:18;7.60;99.90
14893;DHT22;7538;53.626;9.906;2023-01-15T13:24:07;7.70;99.90
14893;DHT22;7538;53.626;9.906;2023-01-15T13:26:52;7.70;99.90
14893;DHT22;7538;53.626;9.906;2023-01-15T13:29:24;7.70;99.90
14893;DHT22;7538;53.626;9.906;2023-01-15T13:32:00;7.70;99.90
14893;DHT22;7538;53.626;9.906;2023-01-15T13:34:34;7.80;99.90
14893;DHT22;7538;53.626;9.906;2023-01-15T13:37:05;7.80;99.90
14893;DHT22;7538;53.626;9.906;2023-01-15T13:39:39;7.70;99.90
14893;DHT22;7538;53.626;9.906;2023-01-15T13:42:15;7.60;99.90
14893;DHT22;7538;53.626;9.906;2023-01-15T13:44:59;7.70;99.90
14893;DHT22;7538;53.626;9.906;2023-01-15T13:47:30;7.80;99.90
14893;DHT22;7538;53.626;9.906;2023-01-15T13:49:59;7.80;99.90
14893;DHT22;7538;53.626;9.906;2023-01-15T13:52:29;7.90;99.90
14893;DHT22;7538;53.626;9.906;2023-01-15T13:54:58;7.90;99.90
14893;DHT22;7538;53.626;9.906;2023-01-15T13:57:33;7.90;99.90
14893;DHT22;7538;53.626;9.906;2023-01-15T14:00:00;7.90;99.90
14893;DHT22;7538;53.626;9.906;2023-01-15T14:02:31;7.90;99.90
14893;DHT22;7538;53.626;9.906;2023-01-15T14:04:59;7.90;99.90
14893;DHT22;7538;53.626;9.906;2023-01-15T14:07:34;8.00;99.90
14893;DHT22;7538;53.626;9.906;2023-01-15T14:10:23;8.00;99.90
14893;DHT22;7538;53.626;9.906;2023-01-15T14:12:59;8.10;99.90
14893;DHT22;7538;53.626;9.906;2023-01-15T14:15:37;8.20;99.90
14893;DHT22;7538;53.626;9.906;2023-01-15T14:18:25;8.20;99.90
14893;DHT22;7538;53.626;9.906;2023-01-15T14:21:21;8.20;99.90
14893;DHT22;7538;53.626;9.906;2023-01-15T14:24:15;8.20;99.90
14893;DHT22;7538;53.626;9.906;2023-01-15T14:26:50;8.20;99.90
14893;DHT22;7538;53.626;9.906;2023-01-15T14:29:33;8.20;99.90
14893;DHT22;7538;53.626;9.906;2023-01-15T14:32:11;8.20;99.90
14893;DHT22;7538;53.626;9.906;2023-01-15T14:34:41;8.20;99.90
14893;DHT22;7538;53.626;9.906;2023-01-15T14:37:23;8.10;99.90
14893;DHT22;7538;53.626;9.906;2023-01-15T14:39:51;8.10;99.90
14893;DHT22;7538;53.626;9.906;2023-01-15T14:42:25;8.00;99.90
14893;DHT22;7538;53.626;9.906;2023-01-15T14:45:19;8.10;99.90
14893;DHT22;7538;53.626;9.906;2023-01-15T14:47:51;8.10;99.90
14893;DHT22;7538;53.626;9.906;2023-01-15T14:50:25;8.00;99.90
14893;DHT22;7538;53.626;9.906;2023-01-15T14:52:59;8.00;99.90
14893;DHT22;7538;53.626;9.906;2023-01-15T14:55:28;8.10;99.90
14893;DHT22;7538;53.626;9.906;2023-01-15T14:57:57;8.10;99.90
14893;DHT22;7538;53.626;9.906;2023-01-15T15:00:30;8.10;99.90
14893;DHT22;7538;53.626;9.906;2023-01-15T15:03:00;8.10;99.90
14893;DHT22;7538;53.626;9.906;2023-01-15T15:05:31;8.00;99.90
14893;DHT22;7538;53.626;9.906;2023-01-15T15:07:59;8.80;99.90
14893;DHT22;7538;53.626;9.906;2023-01-15T15:10:32;8.00;99.90
14893;DHT22;7538;53.626;9.906;2023-01-15T15:13:04;8.00;99.90
14893;DHT22;7538;53.626;9.906;2023-01-15T15:15:43;8.00;99.90
14893;DHT22;7538;53.626;9.906;2023-01-15T15:18:23;7.90;99.90
14893;DHT22;7538;53.626;9.906;2023-01-15T15:20:58;7.80;99.90
14893;DHT22;7538;53.626;9.906;2023-01-15T15:23:30;7.60;99.90
14893;DHT22;7538;53.626;9.906;2023-01-15T15:25:59;7.50;99.90
14893;DHT22;7538;53.626;9.906;2023-01-15T15:28:27;7.40;99.90
14893;DHT22;7538;53.626;9.906;2023-01-15T15:30:57;7.20;99.90
14893;DHT22;7538;53.626;9.906;2023-01-15T15:33:32;7.10;99.90
14893;DHT22;7538;53.626;9.906;2023-01-15T15:36:05;7.00;99.90
14893;DHT22;7538;53.626;9.906;2023-01-15T15:38:33;6.80;99.90
14893;DHT22;7538;53.626;9.906;2023-01-15T15:41:05;6.70;99.90
14893;DHT22;7538;53.626;9.906;2023-01-15T15:43:42;6.50;99.90
14893;DHT22;7538;53.626;9.906;2023-01-15T15:46:28;6.40;99.90
14893;DHT22;7538;53.626;9.906;2023-01-15T15:49:14;6.40;99.90
14893;DHT22;7538;53.626;9.906;2023-01-15T15:51:46;6.20;99.90
14893;DHT22;7538;53.626;9.906;2023-01-15T15:54:16;6.10;99.90
14893;DHT22;7538;53.626;9.906;2023-01-15T15:56:52;6.00;99.90
14893;DHT22;7538;53.626;9.906;2023-01-15T15:59:28;6.00;99.90
14893;DHT22;7538;53.626;9.906;2023-01-15T16:01:57;6.00;99.90
14893;DHT22;7538;53.626;9.906;2023-01-15T16:04:26;6.00;99.90
14893;DHT22;7538;53.626;9.906;2023-01-15T16:06:54;6.10;99.90
14893;DHT22;7538;53.626;9.906;2023-01-15T16:09:22;5.90;99.90
14893;DHT22;7538;53.626;9.906;2023-01-15T16:11:51;5.90;99.90
14893;DHT22;7538;53.626;9.906;2023-01-15T16:14:19;5.80;99.90
14893;DHT22;7538;53.626;9.906;2023-01-15T16:16:48;8.30;99.90
14893;DHT22;7538;53.626;9.906;2023-01-15T16:19:18;5.70;99.90
14893;DHT22;7538;53.626;9.906;2023-01-15T16:21:47;5.60;99.90
14893;DHT22;7538;53.626;9.906;2023-01-15T16:24:27;5.60;99.90
14893;DHT22;7538;53.626;9.906;2023-01-15T16:26:58;5.60;99.90
14893;DHT22;7538;53.626;9.906;2023-01-15T16:29:28;5.70;99.90
14893;DHT22;7538;53.626;9.906;2023-01-15T16:31:55;5.70;99.90
14893;DHT22;7538;53.626;9.906;2023-01-15T16:34:27;5.80;99.90
14893;DHT22;7538;53.626;9.906;2023-01-15T16:36:55;5.90;99.90
14893;DHT22;7538;53.626;9.906;2023-01-15T16:39:25;5.80;99.90